createdAt,value
2016-06-12T00:00:31.561Z,20.85
2016-06-12T00:01:31.595Z,20.87
2016-06-12T00:02:31.457Z,20.88
2016-06-12T00:03:31.648Z,20.81
2016-06-12T00:04:32.432Z,20.85
2016-06-12T00:05:31.873Z,20.87
2016-06-12T00:06:31.720Z,20.75
2016-06-12T00:07:31.755Z,20.77
2016-06-12T00:08:31.814Z,20.78
2016-06-12T00:09:31.871Z,20.75
2016-06-12T00:10:31.928Z,20.69
2016-06-12T00:11:32.000Z,20.7
2016-06-12T00:12:32.057Z,20.75
2016-06-12T00:13:32.113Z,20.63
2016-06-12T00:14:32.145Z,20.63
2016-06-12T00:15:32.194Z,20.65
2016-06-12T00:16:32.241Z,20.58
2016-06-12T00:17:32.274Z,20.62
2016-06-12T00:18:32.316Z,20.63
2016-06-12T00:19:32.824Z,20.62
2016-06-12T00:20:32.629Z,20.58
2016-06-12T00:21:32.418Z,20.55
2016-06-12T00:22:32.442Z,20.56
2016-06-12T00:23:32.479Z,20.55
2016-06-12T00:24:32.500Z,20.48
2016-06-12T00:25:32.536Z,20.44
2016-06-12T00:26:32.557Z,20.48
2016-06-12T00:27:32.593Z,20.51
2016-06-12T00:28:32.613Z,20.47
2016-06-12T00:29:32.648Z,20.43
2016-06-12T00:30:32.666Z,20.41
2016-06-12T00:31:35.389Z,20.41
2016-06-12T00:32:32.720Z,20.44
2016-06-12T00:33:32.849Z,20.44
2016-06-12T00:34:32.634Z,20.43
2016-06-12T00:35:32.918Z,20.34
2016-06-12T00:36:32.828Z,20.4
2016-06-12T00:37:32.862Z,20.39
2016-06-12T00:38:32.881Z,20.26
2016-06-12T00:39:32.916Z,20.29
2016-06-12T00:40:32.934Z,20.31
2016-06-12T00:41:32.969Z,20.25
2016-06-12T00:42:33.002Z,20.29
2016-06-12T00:43:33.022Z,20.31
2016-06-12T00:44:33.041Z,20.32
2016-06-12T00:45:33.075Z,20.26
2016-06-12T00:46:33.093Z,20.18
2016-06-12T00:47:33.128Z,20.18
2016-06-12T00:48:33.162Z,20.18
2016-06-12T00:49:33.197Z,20.16
2016-06-12T00:50:33.637Z,20.16
2016-06-12T00:51:33.234Z,20.14
2016-06-12T00:52:33.252Z,20.13
2016-06-12T00:53:33.287Z,20.11
2016-06-12T00:54:33.322Z,20.04
2016-06-12T00:55:33.339Z,20.03
2016-06-12T00:56:33.374Z,20.07
2016-06-12T00:57:33.393Z,20.03
2016-06-12T00:58:33.427Z,20
2016-06-12T00:59:33.446Z,20
2016-06-12T01:00:33.465Z,20.03
2016-06-12T01:01:33.343Z,19.92
2016-06-12T01:02:33.533Z,19.96
2016-06-12T01:03:33.553Z,19.99
2016-06-12T01:04:33.586Z,19.91
2016-06-12T01:05:33.542Z,19.91
2016-06-12T01:06:33.623Z,19.84
2016-06-12T01:07:33.690Z,19.85
2016-06-12T01:08:33.692Z,19.92
2016-06-12T01:09:33.711Z,19.81
2016-06-12T01:10:33.746Z,19.81
2016-06-12T01:11:33.763Z,19.85
2016-06-12T01:12:33.783Z,19.88
2016-06-12T01:13:33.833Z,19.76
2016-06-12T01:14:33.929Z,19.74
2016-06-12T01:15:33.867Z,19.79
2016-06-12T01:16:33.887Z,19.82
2016-06-12T01:17:33.935Z,19.81
2016-06-12T01:18:33.939Z,19.69
2016-06-12T01:19:33.988Z,19.73
2016-06-12T01:20:34.132Z,19.73
2016-06-12T01:21:34.026Z,19.77
2016-06-12T01:22:34.060Z,19.74
2016-06-12T01:23:34.079Z,19.63
2016-06-12T01:24:34.114Z,19.59
2016-06-12T01:25:34.132Z,19.54
2016-06-12T01:26:34.151Z,19.66
2016-06-12T01:27:34.185Z,19.64
2016-06-12T01:28:34.204Z,19.56
2016-06-12T01:29:34.238Z,19.71
2016-06-12T01:30:34.257Z,19.55
2016-06-12T01:31:34.292Z,19.59
2016-06-12T01:32:34.325Z,19.59
2016-06-12T01:33:34.344Z,19.64
2016-06-12T01:34:34.363Z,19.54
2016-06-12T01:35:35.913Z,19.54
2016-06-12T01:36:34.416Z,19.58
2016-06-12T01:37:34.451Z,19.58
2016-06-12T01:38:34.469Z,19.49
2016-06-12T01:39:34.332Z,19.54
2016-06-12T01:40:34.538Z,19.54
2016-06-12T01:41:34.542Z,19.37
2016-06-12T01:42:34.575Z,19.41
2016-06-12T01:43:34.609Z,19.36
2016-06-12T01:44:34.628Z,19.4
2016-06-12T01:45:34.663Z,19.4
2016-06-12T01:46:34.682Z,19.47
2016-06-12T01:47:34.715Z,19.34
2016-06-12T01:48:34.735Z,19.27
2016-06-12T01:49:34.597Z,19.37
2016-06-12T01:50:34.787Z,19.26
2016-06-12T01:51:34.822Z,19.29
2016-06-12T01:52:34.840Z,19.3
2016-06-12T01:53:34.859Z,19.27
2016-06-12T01:54:34.893Z,19.3
2016-06-12T01:55:34.772Z,19.34
2016-06-12T01:56:34.946Z,19.27
2016-06-12T01:57:34.965Z,19.21
2016-06-12T01:58:35.016Z,19.22
2016-06-12T01:59:35.018Z,19.19
2016-06-12T02:00:35.053Z,19.16
2016-06-12T02:01:35.071Z,19.19
2016-06-12T02:02:35.106Z,19.08
2016-06-12T02:03:35.140Z,19.14
2016-06-12T02:04:35.143Z,19.12
2016-06-12T02:05:35.177Z,19.18
2016-06-12T02:06:35.196Z,19.12
2016-06-12T02:07:35.230Z,19.12
2016-06-12T02:08:35.280Z,19.02
2016-06-12T02:09:35.284Z,18.99
2016-06-12T02:10:35.303Z,19.02
2016-06-12T02:11:35.321Z,18.99
2016-06-12T02:12:35.355Z,18.9
2016-06-12T02:13:35.390Z,18.99
2016-06-12T02:14:35.408Z,19.02
2016-06-12T02:15:35.427Z,18.9
2016-06-12T02:16:35.461Z,18.96
2016-06-12T02:17:35.480Z,18.88
2016-06-12T02:18:35.530Z,18.95
2016-06-12T02:19:35.548Z,18.96
2016-06-12T02:20:35.989Z,18.93
2016-06-12T02:21:35.851Z,18.89
2016-06-12T02:22:35.636Z,18.89
2016-06-12T02:23:35.670Z,18.92
2016-06-12T02:24:35.735Z,18.84
2016-06-12T02:25:35.691Z,18.92
2016-06-12T02:26:35.711Z,18.81
2016-06-12T02:27:35.745Z,18.86
2016-06-12T02:28:35.763Z,18.84
2016-06-12T02:29:35.798Z,18.81
2016-06-12T02:30:35.832Z,18.78
2016-06-12T02:31:35.851Z,18.8
2016-06-12T02:32:35.870Z,18.75
2016-06-12T02:33:35.889Z,18.74
2016-06-12T02:34:35.766Z,18.73
2016-06-12T02:35:35.957Z,18.78
2016-06-12T02:36:35.975Z,18.74
2016-06-12T02:37:35.994Z,18.65
2016-06-12T02:38:36.014Z,18.66
2016-06-12T02:39:36.048Z,18.66
2016-06-12T02:40:36.066Z,18.68
2016-06-12T02:41:36.100Z,18.68
2016-06-12T02:42:35.963Z,18.71
2016-06-12T02:43:36.154Z,18.65
2016-06-12T02:44:36.172Z,18.6
2016-06-12T02:45:36.206Z,18.58
2016-06-12T02:46:36.225Z,18.56
2016-06-12T02:47:36.244Z,18.65
2016-06-12T02:48:36.278Z,18.59
2016-06-12T02:49:36.297Z,18.6
2016-06-12T02:50:37.159Z,18.6
2016-06-12T02:51:36.443Z,18.56
2016-06-12T02:52:36.463Z,18.5
2016-06-12T02:53:36.496Z,18.56
2016-06-12T02:54:36.530Z,18.52
2016-06-12T02:55:36.519Z,18.49
2016-06-12T02:56:36.569Z,18.49
2016-06-12T02:57:36.602Z,18.45
2016-06-12T02:58:36.731Z,18.45
2016-06-12T02:59:36.734Z,18.5
2016-06-12T03:00:36.674Z,18.47
2016-06-12T03:01:36.599Z,18.43
2016-06-12T03:02:36.633Z,18.4
2016-06-12T03:03:36.699Z,18.41
2016-06-12T03:04:36.530Z,18.41
2016-06-12T03:05:36.972Z,18.41
2016-06-12T03:06:36.817Z,18.35
2016-06-12T03:07:36.852Z,18.38
2016-06-12T03:08:36.871Z,18.44
2016-06-12T03:09:36.905Z,18.37
2016-06-12T03:10:36.829Z,18.31
2016-06-12T03:11:36.865Z,18.26
2016-06-12T03:12:36.883Z,18.31
2016-06-12T03:13:36.902Z,18.25
2016-06-12T03:14:36.936Z,18.28
2016-06-12T03:15:36.955Z,18.35
2016-06-12T03:16:37.006Z,18.34
2016-06-12T03:17:36.851Z,18.29
2016-06-12T03:18:37.042Z,18.23
2016-06-12T03:19:37.154Z,18.33
2016-06-12T03:20:38.642Z,18.29
2016-06-12T03:21:37.114Z,18.2
2016-06-12T03:22:37.132Z,18.33
2016-06-12T03:23:37.276Z,18.2
2016-06-12T03:24:37.186Z,18.22
2016-06-12T03:25:37.283Z,18.22
2016-06-12T03:26:37.239Z,18.22
2016-06-12T03:27:37.304Z,18.25
2016-06-12T03:28:37.292Z,18.2
2016-06-12T03:29:37.310Z,18.2
2016-06-12T03:30:37.330Z,18.2
2016-06-12T03:31:37.394Z,18.2
2016-06-12T03:32:37.382Z,18.11
2016-06-12T03:33:37.511Z,18.18
2016-06-12T03:34:37.279Z,18.1
2016-06-12T03:35:37.251Z,18.18
2016-06-12T03:36:37.487Z,18.15
2016-06-12T03:37:37.585Z,18.19
2016-06-12T03:38:37.541Z,18.19
2016-06-12T03:39:37.576Z,18.19
2016-06-12T03:40:37.594Z,18.18
2016-06-12T03:41:37.707Z,18.15
2016-06-12T03:42:37.632Z,18.26
2016-06-12T03:43:37.666Z,18.19
2016-06-12T03:44:37.700Z,18.11
2016-06-12T03:45:37.719Z,18.15
2016-06-12T03:46:37.737Z,18.11
2016-06-12T03:47:37.772Z,18.03
2016-06-12T03:48:37.869Z,18.03
2016-06-12T03:49:37.809Z,18.11
2016-06-12T03:50:39.360Z,18.23
2016-06-12T03:51:37.878Z,18.19
2016-06-12T03:52:37.803Z,18.11
2016-06-12T03:53:38.040Z,18.07
2016-06-12T03:54:37.809Z,18.08
2016-06-12T03:55:37.969Z,18.05
2016-06-12T03:56:38.081Z,18.04
2016-06-12T03:57:38.006Z,18.05
2016-06-12T03:58:38.040Z,18.11
2016-06-12T03:59:38.058Z,18.08
2016-06-12T04:00:38.094Z,18.07
2016-06-12T04:01:38.112Z,18.05
2016-06-12T04:02:38.130Z,18
2016-06-12T04:03:38.242Z,18.13
2016-06-12T04:04:38.184Z,18.08
2016-06-12T04:05:38.406Z,18.11
2016-06-12T04:06:38.940Z,18.08
2016-06-12T04:07:38.255Z,18.04
2016-06-12T04:08:38.368Z,18.04
2016-06-12T04:09:38.386Z,18.05
2016-06-12T04:10:38.389Z,18.08
2016-06-12T04:11:38.408Z,18.11
2016-06-12T04:12:38.395Z,18.13
2016-06-12T04:13:38.414Z,18.05
2016-06-12T04:14:38.527Z,18
2016-06-12T04:15:38.545Z,18.03
2016-06-12T04:16:38.502Z,18.08
2016-06-12T04:17:38.505Z,18.01
2016-06-12T04:18:38.539Z,18.1
2016-06-12T04:19:38.604Z,17.98
2016-06-12T04:20:38.592Z,18.08
2016-06-12T04:21:38.501Z,18
2016-06-12T04:22:38.645Z,18.04
2016-06-12T04:23:38.664Z,18.03
2016-06-12T04:24:38.542Z,18.03
2016-06-12T04:25:38.702Z,18.08
2016-06-12T04:26:38.735Z,18.15
2016-06-12T04:27:38.769Z,18.08
2016-06-12T04:28:38.632Z,18.05
2016-06-12T04:29:38.808Z,18.03
2016-06-12T04:30:38.842Z,18.03
2016-06-12T04:31:38.861Z,18.01
2016-06-12T04:32:38.878Z,18.03
2016-06-12T04:33:38.913Z,18.07
2016-06-12T04:34:38.932Z,18.07
2016-06-12T04:35:38.826Z,18.15
2016-06-12T04:36:39.501Z,18.16
2016-06-12T04:37:39.019Z,18.19
2016-06-12T04:38:39.039Z,18.19
2016-06-12T04:39:39.056Z,18.15
2016-06-12T04:40:39.091Z,18.19
2016-06-12T04:41:39.110Z,18.11
2016-06-12T04:42:39.129Z,18.16
2016-06-12T04:43:39.163Z,18.16
2016-06-12T04:44:39.182Z,18.19
2016-06-12T04:45:39.200Z,18.34
2016-06-12T04:46:39.235Z,18.33
2016-06-12T04:47:39.253Z,18.34
2016-06-12T04:48:39.272Z,18.33
2016-06-12T04:49:39.306Z,18.29
2016-06-12T04:50:39.325Z,18.38
2016-06-12T04:51:39.953Z,18.41
2016-06-12T04:52:39.379Z,18.4
2016-06-12T04:53:39.396Z,18.43
2016-06-12T04:54:39.274Z,18.44
2016-06-12T04:55:39.450Z,18.45
2016-06-12T04:56:39.484Z,18.47
2016-06-12T04:57:39.518Z,18.4
2016-06-12T04:58:39.522Z,18.52
2016-06-12T04:59:39.556Z,18.56
2016-06-12T05:00:39.590Z,18.59
2016-06-12T05:01:39.609Z,18.56
2016-06-12T05:02:39.627Z,18.65
2016-06-12T05:03:39.646Z,18.65
2016-06-12T05:04:39.696Z,18.56
2016-06-12T05:05:39.715Z,18.63
2016-06-12T05:06:39.734Z,18.65
2016-06-12T05:07:39.768Z,18.71
2016-06-12T05:08:39.770Z,18.83
2016-06-12T05:09:39.805Z,18.78
2016-06-12T05:10:39.824Z,18.78
2016-06-12T05:11:39.843Z,18.77
2016-06-12T05:12:39.876Z,18.74
2016-06-12T05:13:39.896Z,18.88
2016-06-12T05:14:39.930Z,18.86
2016-06-12T05:15:39.964Z,18.83
2016-06-12T05:16:39.967Z,18.88
2016-06-12T05:17:40.017Z,18.92
2016-06-12T05:18:40.036Z,18.81
2016-06-12T05:19:40.055Z,18.92
2016-06-12T05:20:40.073Z,18.86
2016-06-12T05:21:40.514Z,18.92
2016-06-12T05:22:40.127Z,18.88
2016-06-12T05:23:40.146Z,18.93
2016-06-12T05:24:40.179Z,19.02
2016-06-12T05:25:40.277Z,18.99
2016-06-12T05:26:40.294Z,19.04
2016-06-12T05:27:40.298Z,19.07
2016-06-12T05:28:40.301Z,19.11
2016-06-12T05:29:40.304Z,19.15
2016-06-12T05:30:40.323Z,19.19
2016-06-12T05:31:40.296Z,19.19
2016-06-12T05:32:40.485Z,19.15
2016-06-12T05:33:40.505Z,19.33
2016-06-12T05:34:40.507Z,19.18
2016-06-12T05:35:40.526Z,19.34
2016-06-12T05:36:40.372Z,19.34
2016-06-12T05:37:40.517Z,19.3
2016-06-12T05:38:40.582Z,19.37
2016-06-12T05:39:40.585Z,19.41
2016-06-12T05:40:40.588Z,19.31
2016-06-12T05:41:40.607Z,19.37
2016-06-12T05:42:40.641Z,19.47
2016-06-12T05:43:40.660Z,19.51
2016-06-12T05:44:40.678Z,19.51
2016-06-12T05:45:40.697Z,19.54
2016-06-12T05:46:40.731Z,19.49
2016-06-12T05:47:40.750Z,19.54
2016-06-12T05:48:40.784Z,19.59
2016-06-12T05:49:40.803Z,19.59
2016-06-12T05:50:40.837Z,19.63
2016-06-12T05:51:41.153Z,19.58
2016-06-12T05:52:40.985Z,19.59
2016-06-12T05:53:41.003Z,19.69
2016-06-12T05:54:40.991Z,19.73
2016-06-12T05:55:41.165Z,19.71
2016-06-12T05:56:41.184Z,19.73
2016-06-12T05:57:41.109Z,19.77
2016-06-12T05:58:41.207Z,19.77
2016-06-12T05:59:41.209Z,19.77
2016-06-12T06:00:41.212Z,19.79
2016-06-12T06:01:41.216Z,19.89
2016-06-12T06:02:41.233Z,19.85
2016-06-12T06:03:41.284Z,19.92
2016-06-12T06:04:41.286Z,19.95
2016-06-12T06:05:41.290Z,19.95
2016-06-12T06:06:41.355Z,19.99
2016-06-12T06:07:41.359Z,20.09
2016-06-12T06:08:41.377Z,20.07
2016-06-12T06:09:41.318Z,20.09
2016-06-12T06:10:41.415Z,20.06
2016-06-12T06:11:41.433Z,20.02
2016-06-12T06:12:41.483Z,20.19
2016-06-12T06:13:41.455Z,20.13
2016-06-12T06:14:41.442Z,20.21
2016-06-12T06:15:41.462Z,20.25
2016-06-12T06:16:41.495Z,20.28
2016-06-12T06:17:41.514Z,20.29
2016-06-12T06:18:41.549Z,20.34
2016-06-12T06:19:41.583Z,20.29
2016-06-12T06:20:41.617Z,20.24
2016-06-12T06:21:41.760Z,20.37
2016-06-12T06:22:41.655Z,20.28
2016-06-12T06:23:41.673Z,20.41
2016-06-12T06:24:41.692Z,20.39
2016-06-12T06:25:41.726Z,20.48
2016-06-12T06:26:41.761Z,20.48
2016-06-12T06:27:41.779Z,20.47
2016-06-12T06:28:41.798Z,20.47
2016-06-12T06:29:41.849Z,20.56
2016-06-12T06:30:41.852Z,20.5
2016-06-12T06:31:41.730Z,20.55
2016-06-12T06:32:41.903Z,20.66
2016-06-12T06:33:41.923Z,20.59
2016-06-12T06:34:41.973Z,20.56
2016-06-12T06:35:41.991Z,20.7
2016-06-12T06:36:41.948Z,20.77
2016-06-12T06:37:42.029Z,20.74
2016-06-12T06:38:42.063Z,20.77
2016-06-12T06:39:42.097Z,20.84
2016-06-12T06:40:41.961Z,20.8
2016-06-12T06:41:42.245Z,20.84
2016-06-12T06:42:42.263Z,20.88
2016-06-12T06:43:42.298Z,20.93
2016-06-12T06:44:42.065Z,20.96
2016-06-12T06:45:42.304Z,20.9
2016-06-12T06:46:42.307Z,21.02
2016-06-12T06:47:42.325Z,20.97
2016-06-12T06:48:42.391Z,21.02
2016-06-12T06:49:42.393Z,21.12
2016-06-12T06:50:42.397Z,21.14
2016-06-12T06:51:42.525Z,21.15
2016-06-12T06:52:42.419Z,21.18
2016-06-12T06:53:42.406Z,21.21
2016-06-12T06:54:42.565Z,21.21
2016-06-12T06:55:42.584Z,21.25
2016-06-12T06:56:42.587Z,21.3
2016-06-12T06:57:42.606Z,21.29
2016-06-12T06:58:42.609Z,21.32
2016-06-12T06:59:42.611Z,21.32
2016-06-12T07:00:42.647Z,21.37
2016-06-12T07:01:42.665Z,21.33
2016-06-12T07:02:42.700Z,21.5
2016-06-12T07:03:42.718Z,21.39
2016-06-12T07:04:42.752Z,21.42
2016-06-12T07:05:42.771Z,21.43
2016-06-12T07:06:42.805Z,21.52
2016-06-12T07:07:42.825Z,21.55
2016-06-12T07:08:42.953Z,21.61
2016-06-12T07:09:42.972Z,21.67
2016-06-12T07:10:42.974Z,21.67
2016-06-12T07:11:42.993Z,21.7
2016-06-12T07:12:43.168Z,21.7
2016-06-12T07:13:43.187Z,21.73
2016-06-12T07:14:43.189Z,21.75
2016-06-12T07:15:43.099Z,21.77
2016-06-12T07:16:43.258Z,21.79
2016-06-12T07:17:43.261Z,21.82
2016-06-12T07:18:43.108Z,21.98
2016-06-12T07:19:43.267Z,21.93
2016-06-12T07:20:43.286Z,21.96
2016-06-12T07:21:43.336Z,22.02
2016-06-12T07:22:43.292Z,21.96
2016-06-12T07:23:43.296Z,22
2016-06-12T07:24:43.377Z,22.06
2016-06-12T07:25:43.379Z,22.15
2016-06-12T07:26:43.414Z,22.08
2016-06-12T07:27:43.494Z,22.15
2016-06-12T07:28:43.544Z,22.23
2016-06-12T07:29:43.423Z,22.23
2016-06-12T07:30:43.442Z,22.29
2016-06-12T07:31:43.460Z,22.28
2016-06-12T07:32:43.495Z,22.35
2016-06-12T07:33:43.513Z,22.44
2016-06-12T07:34:43.704Z,22.41
2016-06-12T07:35:43.676Z,22.43
2016-06-12T07:36:44.147Z,22.51
2016-06-12T07:37:43.635Z,22.51
2016-06-12T07:38:43.654Z,22.39
2016-06-12T07:39:43.689Z,22.48
2016-06-12T07:40:43.785Z,22.53
2016-06-12T07:41:43.757Z,22.5
2016-06-12T07:42:43.885Z,22.65
2016-06-12T07:43:43.872Z,22.57
2016-06-12T07:44:43.891Z,22.6
2016-06-12T07:45:43.910Z,22.6
2016-06-12T07:46:43.944Z,22.68
2016-06-12T07:47:44.103Z,22.7
2016-06-12T07:48:44.012Z,22.68
2016-06-12T07:49:44.031Z,22.78
2016-06-12T07:50:44.175Z,22.78
2016-06-12T07:51:44.178Z,22.87
2016-06-12T07:52:44.181Z,22.91
2016-06-12T07:53:44.200Z,22.91
2016-06-12T07:54:44.203Z,22.96
2016-06-12T07:55:44.206Z,22.98
2016-06-12T07:56:44.209Z,22.98
2016-06-12T07:57:44.212Z,22.98
2016-06-12T07:58:44.293Z,23.05
2016-06-12T07:59:44.140Z,23.08
2016-06-12T08:00:44.346Z,23.06
2016-06-12T08:01:44.287Z,23.18
2016-06-12T08:02:44.322Z,23.23
2016-06-12T08:03:44.183Z,23.27
2016-06-12T08:04:44.375Z,23.24
2016-06-12T08:05:44.393Z,23.36
2016-06-12T08:06:44.458Z,23.39
2016-06-12T08:07:44.306Z,23.34
2016-06-12T08:08:44.480Z,23.44
2016-06-12T08:09:44.515Z,23.54
2016-06-12T08:10:44.549Z,23.51
2016-06-12T08:11:44.568Z,23.58
2016-06-12T08:12:44.586Z,23.58
2016-06-12T08:13:44.621Z,23.62
2016-06-12T08:14:44.655Z,23.71
2016-06-12T08:15:44.674Z,23.69
2016-06-12T08:16:44.708Z,23.73
2016-06-12T08:17:44.726Z,23.76
2016-06-12T08:18:44.761Z,23.74
2016-06-12T08:19:44.780Z,23.8
2016-06-12T08:20:44.814Z,23.93
2016-06-12T08:21:44.693Z,23.91
2016-06-12T08:22:45.196Z,23.87
2016-06-12T08:23:44.902Z,23.99
2016-06-12T08:24:44.936Z,24.01
2016-06-12T08:25:44.955Z,24.06
2016-06-12T08:26:44.990Z,24.1
2016-06-12T08:27:45.007Z,24.17
2016-06-12T08:28:45.042Z,24.21
2016-06-12T08:29:45.077Z,24.24
2016-06-12T08:30:45.095Z,24.28
2016-06-12T08:31:45.130Z,24.39
2016-06-12T08:32:45.163Z,24.42
2016-06-12T08:33:45.182Z,24.47
2016-06-12T08:34:45.217Z,24.42
2016-06-12T08:35:45.250Z,24.55
2016-06-12T08:36:45.270Z,24.51
2016-06-12T08:37:45.288Z,24.54
2016-06-12T08:38:45.323Z,24.63
2016-06-12T08:39:45.201Z,24.68
2016-06-12T08:40:45.391Z,24.73
2016-06-12T08:41:45.425Z,24.76
2016-06-12T08:42:45.476Z,24.84
2016-06-12T08:43:45.479Z,24.86
2016-06-12T08:44:45.497Z,24.92
2016-06-12T08:45:45.517Z,24.96
2016-06-12T08:46:45.550Z,24.95
2016-06-12T08:47:45.584Z,25.03
2016-06-12T08:48:45.619Z,25.16
2016-06-12T08:49:45.638Z,25.06
2016-06-12T08:50:45.516Z,25.21
2016-06-12T08:51:46.753Z,25.16
2016-06-12T08:52:46.022Z,25.25
2016-06-12T08:53:45.853Z,25.22
2016-06-12T08:54:45.857Z,25.28
2016-06-12T08:55:45.891Z,25.32
2016-06-12T08:56:45.846Z,25.38
2016-06-12T08:57:45.882Z,25.35
2016-06-12T08:58:45.760Z,25.47
2016-06-12T08:59:45.935Z,25.44
2016-06-12T09:00:45.968Z,25.51
2016-06-12T09:01:45.987Z,25.58
2016-06-12T09:02:46.022Z,25.54
2016-06-12T09:03:46.150Z,25.58
2016-06-12T09:04:46.090Z,25.53
2016-06-12T09:05:46.312Z,25.5
2016-06-12T09:06:46.487Z,25.58
2016-06-12T09:07:46.318Z,25.69
2016-06-12T09:08:46.603Z,25.69
2016-06-12T09:09:46.230Z,25.7
2016-06-12T09:10:46.344Z,25.69
2016-06-12T09:11:46.284Z,25.88
2016-06-12T09:12:46.333Z,25.8
2016-06-12T09:13:46.352Z,25.87
2016-06-12T09:14:46.372Z,25.9
2016-06-12T09:15:46.446Z,25.93
2016-06-12T09:16:46.522Z,26.02
2016-06-12T09:17:46.613Z,26.05
2016-06-12T09:18:46.672Z,26.1
2016-06-12T09:19:46.731Z,26.18
2016-06-12T09:20:46.780Z,26.23
2016-06-12T09:21:47.016Z,26.09
2016-06-12T09:22:46.878Z,26.22
2016-06-12T09:23:46.896Z,26.25
2016-06-12T09:24:46.944Z,26.36
2016-06-12T09:25:46.983Z,26.43
2016-06-12T09:26:47.007Z,26.44
2016-06-12T09:27:47.046Z,26.52
2016-06-12T09:28:47.086Z,26.58
2016-06-12T09:29:47.110Z,26.66
2016-06-12T09:30:47.162Z,26.7
2016-06-12T09:31:47.181Z,26.75
2016-06-12T09:32:47.219Z,26.85
2016-06-12T09:33:47.238Z,26.93
2016-06-12T09:34:47.290Z,26.9
2016-06-12T09:35:47.325Z,27.03
2016-06-12T09:36:47.407Z,27.02
2016-06-12T09:37:47.693Z,27.2
2016-06-12T09:38:47.414Z,27.21
2016-06-12T09:39:47.498Z,27.22
2016-06-12T09:40:47.516Z,27.32
2016-06-12T09:41:47.363Z,27.35
2016-06-12T09:42:47.398Z,27.35
2016-06-12T09:43:47.557Z,27.51
2016-06-12T09:44:47.577Z,27.54
2016-06-12T09:45:47.643Z,27.54
2016-06-12T09:46:47.739Z,27.58
2016-06-12T09:47:47.680Z,27.75
2016-06-12T09:48:47.808Z,27.74
2016-06-12T09:49:47.748Z,27.9
2016-06-12T09:50:47.861Z,27.93
2016-06-12T09:51:47.802Z,28.02
2016-06-12T09:52:48.945Z,28.1
2016-06-12T09:53:47.854Z,28.08
2016-06-12T09:54:47.889Z,28.17
2016-06-12T09:55:47.767Z,28.27
2016-06-12T09:56:47.801Z,28.37
2016-06-12T09:57:47.975Z,28.32
2016-06-12T09:58:48.011Z,28.44
2016-06-12T09:59:48.045Z,28.56
2016-06-12T10:00:48.079Z,28.63
2016-06-12T10:01:48.410Z,28.74
2016-06-12T10:02:48.148Z,28.76
2016-06-12T10:03:48.166Z,28.82
2016-06-12T10:04:48.201Z,28.91
2016-06-12T10:05:48.235Z,28.98
2016-06-12T10:06:48.254Z,29.01
2016-06-12T10:07:48.944Z,29.02
2016-06-12T10:08:48.322Z,29.14
2016-06-12T10:09:48.357Z,29.2
2016-06-12T10:10:48.391Z,29.29
2016-06-12T10:11:48.456Z,29.35
2016-06-12T10:12:48.460Z,29.36
2016-06-12T10:13:48.479Z,29.39
2016-06-12T10:14:48.513Z,29.49
2016-06-12T10:15:48.547Z,29.51
2016-06-12T10:16:48.581Z,29.56
2016-06-12T10:17:48.459Z,29.54
2016-06-12T10:18:48.634Z,29.57
2016-06-12T10:19:48.685Z,29.65
2016-06-12T10:20:48.703Z,29.72
2016-06-12T10:21:48.737Z,29.81
2016-06-12T10:22:48.835Z,29.81
2016-06-12T10:23:48.635Z,29.97
2016-06-12T10:24:48.825Z,30.03
2016-06-12T10:25:48.859Z,30.02
2016-06-12T10:26:48.894Z,30.15
2016-06-12T10:27:48.928Z,30.16
2016-06-12T10:28:48.946Z,30.15
2016-06-12T10:29:48.981Z,30.27
2016-06-12T10:30:49.015Z,30.27
2016-06-12T10:31:49.050Z,30.35
2016-06-12T10:32:49.084Z,30.4
2016-06-12T10:33:49.119Z,30.47
2016-06-12T10:34:49.152Z,30.53
2016-06-12T10:35:49.187Z,30.51
2016-06-12T10:36:49.221Z,30.54
2016-06-12T10:37:49.646Z,30.65
2016-06-12T10:38:49.274Z,30.68
2016-06-12T10:39:49.309Z,30.77
2016-06-12T10:40:49.343Z,30.78
2016-06-12T10:41:49.455Z,30.87
2016-06-12T10:42:49.427Z,30.85
2016-06-12T10:43:49.430Z,30.87
2016-06-12T10:44:49.464Z,30.99
2016-06-12T10:45:49.514Z,30.97
2016-06-12T10:46:49.533Z,31
2016-06-12T10:47:49.583Z,31.05
2016-06-12T10:48:49.602Z,30.99
2016-06-12T10:49:49.636Z,31.1
2016-06-12T10:50:49.779Z,31.21
2016-06-12T10:51:49.721Z,31.27
2016-06-12T10:52:50.036Z,31.37
2016-06-12T10:53:49.788Z,31.29
2016-06-12T10:54:49.808Z,31.39
2016-06-12T10:55:49.826Z,31.44
2016-06-12T10:56:49.861Z,31.4
2016-06-12T10:57:49.895Z,31.61
2016-06-12T10:58:49.930Z,31.55
2016-06-12T10:59:49.963Z,31.65
2016-06-12T11:00:49.998Z,31.62
2016-06-12T11:01:50.032Z,31.74
2016-06-12T11:02:50.051Z,31.84
2016-06-12T11:03:50.101Z,31.94
2016-06-12T11:04:50.135Z,32
2016-06-12T11:05:50.170Z,32.07
2016-06-12T11:06:50.204Z,32.19
2016-06-12T11:07:51.644Z,32.3
2016-06-12T11:08:50.273Z,32.38
2016-06-12T11:09:50.291Z,32.41
2016-06-12T11:10:50.341Z,32.38
2016-06-12T11:11:50.360Z,32.49
2016-06-12T11:12:50.410Z,32.48
2016-06-12T11:13:50.272Z,32.58
2016-06-12T11:14:50.463Z,32.64
2016-06-12T11:15:50.513Z,32.67
2016-06-12T11:16:50.532Z,32.71
2016-06-12T11:17:50.566Z,32.71
2016-06-12T11:18:50.599Z,32.73
2016-06-12T11:19:50.682Z,32.77
2016-06-12T11:20:50.669Z,32.82
2016-06-12T11:21:50.703Z,32.73
2016-06-12T11:22:51.519Z,32.82
2016-06-12T11:23:50.772Z,32.82
2016-06-12T11:24:50.806Z,32.85
2016-06-12T11:25:50.825Z,32.73
2016-06-12T11:26:50.874Z,32.71
2016-06-12T11:27:50.893Z,32.7
2016-06-12T11:28:50.943Z,32.71
2016-06-12T11:29:50.978Z,32.73
2016-06-12T11:30:51.027Z,32.74
2016-06-12T11:31:51.046Z,32.74
2016-06-12T11:32:51.065Z,32.71
2016-06-12T11:33:51.115Z,32.71
2016-06-12T11:34:51.149Z,32.7
2016-06-12T11:35:51.027Z,32.73
2016-06-12T11:36:51.202Z,32.71
2016-06-12T11:37:51.972Z,32.71
2016-06-12T11:38:51.287Z,32.65
2016-06-12T11:39:51.322Z,32.68
2016-06-12T11:40:51.356Z,32.67
2016-06-12T11:41:51.389Z,32.56
2016-06-12T11:42:51.408Z,32.55
2016-06-12T11:43:51.458Z,32.49
2016-06-12T11:44:51.492Z,32.43
2016-06-12T11:45:51.558Z,32.41
2016-06-12T11:46:51.593Z,32.41
2016-06-12T11:47:51.596Z,32.45
2016-06-12T11:48:51.646Z,32.36
2016-06-12T11:49:51.649Z,32.26
2016-06-12T11:50:51.902Z,32.33
2016-06-12T11:51:51.733Z,32.27
2016-06-12T11:52:52.126Z,32.22
2016-06-12T11:53:52.099Z,32.15
2016-06-12T11:54:51.835Z,32.18
2016-06-12T11:55:51.886Z,32.09
2016-06-12T11:56:51.905Z,32.14
2016-06-12T11:57:51.938Z,32.01
2016-06-12T11:58:51.972Z,31.96
2016-06-12T11:59:52.008Z,31.94
2016-06-12T12:00:52.042Z,31.89
2016-06-12T12:01:52.076Z,31.94
2016-06-12T12:02:52.110Z,31.84
2016-06-12T12:03:52.176Z,31.78
2016-06-12T12:04:52.273Z,31.73
2016-06-12T12:05:52.213Z,31.76
2016-06-12T12:06:52.341Z,31.55
2016-06-12T12:07:53.063Z,31.58
2016-06-12T12:08:52.316Z,31.52
2016-06-12T12:09:52.350Z,31.52
2016-06-12T12:10:52.385Z,31.42
2016-06-12T12:11:52.403Z,31.31
2016-06-12T12:12:52.453Z,31.47
2016-06-12T12:13:52.473Z,31.39
2016-06-12T12:14:52.507Z,31.28
2016-06-12T12:15:52.557Z,31.22
2016-06-12T12:16:52.592Z,31.27
2016-06-12T12:17:52.625Z,31.22
2016-06-12T12:18:52.644Z,31.22
2016-06-12T12:19:52.726Z,31.09
2016-06-12T12:20:52.745Z,31.17
2016-06-12T12:21:52.748Z,31.18
2016-06-12T12:22:52.969Z,31.1
2016-06-12T12:23:52.863Z,31.12
2016-06-12T12:24:52.849Z,30.99
2016-06-12T12:25:52.885Z,30.96
2016-06-12T12:26:52.934Z,30.94
2016-06-12T12:27:52.968Z,30.91
2016-06-12T12:28:53.003Z,30.91
2016-06-12T12:29:53.037Z,30.75
2016-06-12T12:30:53.071Z,30.84
2016-06-12T12:31:53.107Z,30.78
2016-06-12T12:32:53.156Z,30.73
2016-06-12T12:33:53.175Z,30.68
2016-06-12T12:34:53.319Z,30.77
2016-06-12T12:35:53.227Z,30.72
2016-06-12T12:36:53.293Z,30.69
2016-06-12T12:37:53.233Z,30.66
2016-06-12T12:38:53.392Z,30.59
2016-06-12T12:39:53.381Z,30.44
2016-06-12T12:40:53.399Z,30.44
2016-06-12T12:41:53.542Z,30.34
2016-06-12T12:42:53.468Z,30.35
2016-06-12T12:43:53.502Z,30.21
2016-06-12T12:44:53.553Z,30.19
2016-06-12T12:45:53.571Z,30.05
2016-06-12T12:46:53.605Z,30.09
2016-06-12T12:47:53.483Z,30.03
2016-06-12T12:48:53.689Z,30
2016-06-12T12:49:53.709Z,29.97
2016-06-12T12:50:53.758Z,29.97
2016-06-12T12:51:53.777Z,30
2016-06-12T12:52:53.671Z,29.98
2016-06-12T12:53:54.299Z,29.95
2016-06-12T12:54:53.895Z,29.97
2016-06-12T12:55:53.914Z,29.95